Washington, DC (20553)

11:28 PM EDT on September 01, 2014 (GMT -0400)
H Street Corridor - NoMa | Change Station
CLOSE
Current Station
Personal Weather Station
Location: Washington, DC
Elevation: 56 ft
Nearby Weather Stations

Elev 56 ft 38.90 °N, 77.00 °W | Updated 3 seconds ago

Mostly Cloudy
Mostly Cloudy
81.9 °F
Feels Like 88 °F
N
2.0
Wind Variable Wind from SE
Gusts 7.0 mph

Today
High -- | Low -- °F
--% Chance of Precip.
Yesterday
High -- | Low -- °F
Precip. -- in
6:37 AM 7:38 PM
Waxing Crescent, 47% visible
Pressure 29.97 in
Visibility 10.0 miles
Clouds Few 6000 ft
Scattered Clouds 14000 ft
Mostly Cloudy 25000 ft
Heat Index 88 °F
Dew Point 74 °F
Humidity 78%
Rainfall 0.19 in
Snow Depth Not available.
UV 0 out of 12
Pollen 7.50 out of 12
Air Quality Not available.
Flu Activity Not available.
METAR KDCA 020252Z 19004KT 10SM FEW060 SCT140 BKN250 27/23 A2997 RMK AO2 SLP149 T02720233 53003

More Conditions Fewer Conditions

Pressure 29.97 in
Visibility 10.0 miles
Clouds Few 6000 ft
Scattered Clouds 14000 ft
Mostly Cloudy 25000 ft
Heat Index 88 °F
Dew Point 74 °F
Humidity 78%
Rainfall 0.19 in
Snow Depth Not available.
UV 0 out of 12
Pollen 7.50 out of 12
Air Quality Not available.
Flu Activity Not available.
METAR KDCA 020252Z 19004KT 10SM FEW060 SCT140 BKN250 27/23 A2997 RMK AO2 SLP149 T02720233 53003

More Conditions Fewer Conditions

10-Day Weather Forecast

Almanac

Astronomy

Sep. 01, 2014 Rise Set
Actual Time 6:37 AM EDT 7:38 PM EDT
Civil Twilight 6:09 AM EDT 8:05 PM EDT
Nautical Twilight 5:37 AM EDT 8:38 PM EDT
Astronomical Twilight 5:03 AM EDT 9:11 PM EDT
Moon 1:16 PM EDT (9/1) 11:41 PM EDT (9/1)
Length of Visible Light 13h 56m
Length of Day
13h 01m
Tomorrow will be 2m 26s shorter.
Waxing Crescent, 47% of the Moon is Illuminated
Today
Waxing Crescent
Sep 2
First Quarter
Sep 8
Full
Sep 15
Last Quarter
Sep 24
New

Today's Extremes

State Highs State Lows

Community

WunderPhotos

Upload Photos

1,749,546 photos uploaded!

WunderBlogs® & News

Nearby

Snow Depth

Station Depth Elevation
No new snow has been reported.

Earthquake Activity

City Distance Mag. Time & Date
No recent earthquake activity has been reported nearby.
Minimum magnitude displayed is 2.5.

Coastal Water Temperatures

Place Temperature
Washington, DC 80.1 °F
Baltimore, MD 82.0 °F
Solomons Island, MD 81.0 °F

Nearby Weather Stations